createdAt,value
2022-08-07T00:01:12.511Z,100800.16
2022-08-07T00:03:51.141Z,100792.72
2022-08-07T00:06:17.749Z,100801.75
2022-08-07T00:08:55.996Z,100802.91
2022-08-07T00:11:30.012Z,100799.00
2022-08-07T00:13:59.818Z,100799.31
2022-08-07T00:16:28.087Z,100792.19
2022-08-07T00:18:54.921Z,100791.50
2022-08-07T00:21:55.335Z,100779.13
2022-08-07T00:24:09.218Z,100783.81
2022-08-07T00:26:58.592Z,100790.03
2022-08-07T00:29:26.182Z,100790.28
2022-08-07T00:31:59.866Z,100791.28
2022-08-07T00:34:27.281Z,100784.25
2022-08-07T00:36:56.086Z,100782.56
2022-08-07T00:39:22.822Z,100779.00
2022-08-07T00:41:53.663Z,100768.41
2022-08-07T00:44:28.321Z,100774.16
2022-08-07T00:46:55.599Z,100769.25
2022-08-07T00:49:24.778Z,100773.22
2022-08-07T00:52:09.915Z,100765.91
2022-08-07T00:54:36.654Z,100752.06
2022-08-07T00:57:07.472Z,100749.69
2022-08-07T00:59:36.886Z,100743.78
2022-08-07T01:02:06.354Z,100747.41
2022-08-07T01:04:43.280Z,100742.00
2022-08-07T01:07:11.128Z,100743.56
2022-08-07T01:10:05.060Z,100741.94
2022-08-07T01:12:29.973Z,100739.25
2022-08-07T01:15:01.493Z,100740.97
2022-08-07T01:17:31.250Z,100741.63
2022-08-07T01:20:01.892Z,100734.31
2022-08-07T01:22:31.178Z,100743.31
2022-08-07T01:24:58.878Z,100741.63
2022-08-07T01:27:32.059Z,100743.38
2022-08-07T01:29:59.659Z,100751.06
2022-08-07T01:32:27.788Z,100740.09
2022-08-07T01:34:55.801Z,100733.44
2022-08-07T01:37:24.115Z,100734.56
2022-08-07T01:39:51.258Z,100729.38
2022-08-07T01:42:38.057Z,100732.03
2022-08-07T01:45:05.167Z,100722.63
2022-08-07T01:48:19.665Z,100722.78
2022-08-07T01:50:28.945Z,100723.59
2022-08-07T01:52:58.400Z,100726.66
2022-08-07T01:55:29.714Z,100732.00
2022-08-07T01:58:06.428Z,100739.88
2022-08-07T02:00:58.119Z,100737.88
2022-08-07T02:03:51.192Z,100733.94
2022-08-07T02:06:31.635Z,100738.13
2022-08-07T02:09:00.520Z,100734.91
2022-08-07T02:12:03.590Z,100735.13
2022-08-07T02:14:36.165Z,100741.22
2022-08-07T02:17:06.353Z,100737.53
2022-08-07T02:20:05.311Z,100734.09
2022-08-07T02:22:25.599Z,100730.69
2022-08-07T02:24:54.292Z,100728.53
2022-08-07T02:27:23.041Z,100718.50
2022-08-07T02:29:54.750Z,100713.44
2022-08-07T02:32:23.186Z,100718.03
2022-08-07T02:34:51.487Z,100725.03
2022-08-07T02:37:19.003Z,100722.19
2022-08-07T02:40:12.308Z,100727.56
2022-08-07T02:42:34.051Z,100735.88
2022-08-07T02:45:13.592Z,100735.16
2022-08-07T02:47:49.372Z,100738.25
2022-08-07T02:50:16.667Z,100740.19
2022-08-07T02:52:53.067Z,100739.38
2022-08-07T02:55:28.116Z,100726.84
2022-08-07T02:58:11.129Z,100726.41
2022-08-07T03:00:39.222Z,100721.34
2022-08-07T03:03:07.716Z,100713.59
2022-08-07T03:05:40.903Z,100716.25
2022-08-07T03:08:10.203Z,100721.72
2022-08-07T03:10:46.332Z,100722.16
2022-08-07T03:13:19.259Z,100707.00
2022-08-07T03:15:55.985Z,100715.69
2022-08-07T03:18:34.149Z,100725.94
2022-08-07T03:21:02.593Z,100722.56
2022-08-07T03:23:33.740Z,100715.78
2022-08-07T03:26:21.095Z,100721.94
2022-08-07T03:28:51.464Z,100715.16
2022-08-07T03:31:19.149Z,100707.03
2022-08-07T03:33:55.361Z,100712.34
2022-08-07T03:36:25.909Z,100708.38
2022-08-07T03:38:54.352Z,100718.81
2022-08-07T03:41:42.116Z,100725.72
2022-08-07T03:44:08.836Z,100724.72
2022-08-07T03:46:37.644Z,100727.38
2022-08-07T03:49:24.386Z,100731.63
2022-08-07T03:52:01.294Z,100739.84
2022-08-07T03:54:35.809Z,100743.34
2022-08-07T03:58:35.058Z,100744.25
2022-08-07T04:00:04.426Z,100743.09
2022-08-07T04:02:31.194Z,100748.34
2022-08-07T04:04:58.562Z,100741.69
2022-08-07T04:07:25.713Z,100746.81
2022-08-07T04:10:03.381Z,100746.94
2022-08-07T04:12:30.727Z,100753.72
2022-08-07T04:14:58.603Z,100755.44
2022-08-07T04:18:30.784Z,100757.81
2022-08-07T04:20:13.967Z,100765.97
2022-08-07T04:22:53.369Z,100768.50
2022-08-07T04:25:21.487Z,100771.22
2022-08-07T04:27:59.158Z,100777.25
2022-08-07T04:30:39.409Z,100774.16
2022-08-07T04:33:15.516Z,100773.31
2022-08-07T04:35:44.144Z,100770.75
2022-08-07T04:38:17.145Z,100770.78
2022-08-07T04:40:52.907Z,100777.13
2022-08-07T04:44:13.259Z,100784.44
2022-08-07T04:46:29.405Z,100787.13
2022-08-07T04:49:18.053Z,100783.75
2022-08-07T04:52:00.676Z,100784.59
2022-08-07T04:54:30.250Z,100784.16
2022-08-07T04:58:14.034Z,100786.84
2022-08-07T05:00:09.695Z,100788.69
2022-08-07T05:02:50.442Z,100786.25
2022-08-07T05:05:52.945Z,100786.69
2022-08-07T05:08:59.607Z,100794.84
2022-08-07T05:12:02.438Z,100783.56
2022-08-07T05:14:55.701Z,100792.63
2022-08-07T05:17:52.232Z,100796.44
2022-08-07T05:20:10.090Z,100800.91
2022-08-07T05:22:39.037Z,100803.44
2022-08-07T05:25:08.475Z,100807.09
2022-08-07T05:28:03.411Z,100812.44
2022-08-07T05:30:32.392Z,100813.19
2022-08-07T05:33:02.590Z,100813.44
2022-08-07T05:35:33.486Z,100814.72
2022-08-07T05:38:09.876Z,100813.44
2022-08-07T05:40:50.283Z,100819.22
2022-08-07T05:43:19.066Z,100826.41
2022-08-07T05:45:48.343Z,100823.59
2022-08-07T05:48:15.313Z,100825.72
2022-08-07T05:50:43.709Z,100822.47
2022-08-07T05:54:09.274Z,100832.88
2022-08-07T05:56:02.303Z,100819.91
2022-08-07T05:58:36.750Z,100822.00
2022-08-07T06:01:04.961Z,100834.13
2022-08-07T06:03:47.013Z,100830.16
2022-08-07T06:06:20.474Z,100834.50
2022-08-07T06:08:47.942Z,100833.41
2022-08-07T06:11:18.241Z,100840.28
2022-08-07T06:14:11.921Z,100843.94
2022-08-07T06:16:35.444Z,100845.66
2022-08-07T06:19:03.309Z,100845.50
2022-08-07T06:22:14.542Z,100847.03
2022-08-07T06:24:45.438Z,100847.19
2022-08-07T06:27:07.149Z,100855.25
2022-08-07T06:29:35.048Z,100847.31
2022-08-07T06:32:05.811Z,100849.59
2022-08-07T06:34:32.489Z,100853.53
2022-08-07T06:36:59.936Z,100855.63
2022-08-07T06:40:13.051Z,100868.75
2022-08-07T06:42:19.359Z,100867.06
2022-08-07T06:44:51.130Z,100873.56
2022-08-07T06:47:18.357Z,100871.72
2022-08-07T06:49:51.644Z,100877.25
2022-08-07T06:52:31.501Z,100881.44
2022-08-07T06:55:33.671Z,100878.31
2022-08-07T06:57:56.417Z,100873.78
2022-08-07T07:00:24.317Z,100876.19
2022-08-07T07:02:54.314Z,100887.28
2022-08-07T07:06:03.041Z,100889.69
2022-08-07T07:08:18.200Z,100889.00
2022-08-07T07:10:56.900Z,100892.22
2022-08-07T07:13:57.595Z,100892.63
2022-08-07T07:16:27.460Z,100896.88
2022-08-07T07:18:59.655Z,100892.34
2022-08-07T07:21:40.478Z,100887.53
2022-08-07T07:24:22.119Z,100896.72
2022-08-07T07:26:52.294Z,100890.75
2022-08-07T07:29:55.892Z,100899.19
2022-08-07T07:32:09.603Z,100897.38
2022-08-07T07:34:39.658Z,100904.97
2022-08-07T07:37:21.470Z,100908.34
2022-08-07T07:39:58.698Z,100914.56
2022-08-07T07:42:33.203Z,100911.72
2022-08-07T07:45:02.030Z,100912.00
2022-08-07T07:47:29.599Z,100910.03
2022-08-07T07:50:34.298Z,100913.78
2022-08-07T07:52:46.893Z,100909.66
2022-08-07T07:55:14.658Z,100908.91
2022-08-07T07:57:50.230Z,100904.16
2022-08-07T08:00:29.987Z,100909.88
2022-08-07T08:03:06.202Z,100906.03
2022-08-07T08:05:50.760Z,100907.88
2022-08-07T08:08:34.720Z,100908.66
2022-08-07T08:11:08.690Z,100921.66
2022-08-07T08:13:53.233Z,100917.38
2022-08-07T08:16:25.168Z,100916.75
2022-08-07T08:18:54.929Z,100908.34
2022-08-07T08:21:55.716Z,100921.88
2022-08-07T08:24:47.786Z,100911.41
2022-08-07T08:27:29.514Z,100912.50
2022-08-07T08:30:08.024Z,100916.16
2022-08-07T08:32:47.067Z,100913.72
2022-08-07T08:35:18.875Z,100906.63
2022-08-07T08:38:00.466Z,100913.13
2022-08-07T08:40:37.930Z,100907.88
2022-08-07T08:43:05.222Z,100912.72
2022-08-07T08:45:41.968Z,100915.78
2022-08-07T08:48:32.556Z,100915.22
2022-08-07T08:51:14.753Z,100916.75
2022-08-07T08:53:56.805Z,100910.97
2022-08-07T08:56:27.555Z,100915.31
2022-08-07T08:59:06.489Z,100910.91
2022-08-07T09:01:59.763Z,100912.34
2022-08-07T09:04:33.787Z,100913.34
2022-08-07T09:07:11.711Z,100908.94
2022-08-07T09:09:57.428Z,100914.88
2022-08-07T09:12:32.170Z,100916.03
2022-08-07T09:16:25.160Z,100917.00
2022-08-07T09:18:08.740Z,100919.56
2022-08-07T09:20:40.171Z,100923.91
2022-08-07T09:24:32.305Z,100915.34
2022-08-07T09:26:20.951Z,100915.09
2022-08-07T09:30:01.317Z,100920.00
2022-08-07T09:31:52.352Z,100917.53
2022-08-07T09:34:22.849Z,100925.53
2022-08-07T09:37:05.138Z,100915.72
2022-08-07T09:39:53.707Z,100919.00
2022-08-07T09:42:41.097Z,100920.09
2022-08-07T09:47:52.126Z,100915.09
2022-08-07T09:48:25.205Z,100926.16
2022-08-07T09:51:14.558Z,100919.38
2022-08-07T09:54:02.907Z,100925.84
2022-08-07T09:56:47.811Z,100923.47
2022-08-07T09:59:29.765Z,100926.44
2022-08-07T10:02:34.584Z,100922.47
2022-08-07T10:05:12.579Z,100921.16
2022-08-07T10:07:53.562Z,100925.00
2022-08-07T10:11:07.654Z,100921.78
2022-08-07T10:14:00.111Z,100916.00
2022-08-07T10:16:36.247Z,100917.66
2022-08-07T10:19:11.423Z,100910.31
2022-08-07T10:22:15.421Z,100909.97
2022-08-07T10:25:01.486Z,100915.66
2022-08-07T10:27:46.588Z,100914.97
2022-08-07T10:30:19.077Z,100924.88
2022-08-07T10:32:59.970Z,100919.22
2022-08-07T10:35:55.263Z,100917.41
2022-08-07T10:38:48.533Z,100914.03
2022-08-07T10:41:46.356Z,100915.34
2022-08-07T10:44:11.389Z,100911.03
2022-08-07T10:46:53.454Z,100914.56
2022-08-07T10:49:49.721Z,100910.16
2022-08-07T10:52:18.961Z,100910.47
2022-08-07T10:55:01.977Z,100902.13
2022-08-07T10:57:56.325Z,100895.81
2022-08-07T11:00:39.136Z,100900.84
2022-08-07T11:03:19.960Z,100891.88
2022-08-07T11:06:04.870Z,100893.13
2022-08-07T11:08:39.013Z,100892.97
2022-08-07T11:11:11.821Z,100891.81
2022-08-07T11:14:44.338Z,100887.06
2022-08-07T11:16:54.802Z,100887.84
2022-08-07T11:19:32.024Z,100888.81
2022-08-07T11:22:18.904Z,100883.50
2022-08-07T11:25:04.319Z,100886.34
2022-08-07T11:28:01.197Z,100883.91
2022-08-07T11:30:41.918Z,100887.91
2022-08-07T11:33:59.097Z,100881.91
2022-08-07T11:36:16.473Z,100874.94
2022-08-07T11:38:58.021Z,100872.72
2022-08-07T11:42:00.343Z,100879.81
2022-08-07T11:44:52.736Z,100867.69
2022-08-07T11:47:38.992Z,100872.56
2022-08-07T11:50:35.261Z,100868.66
2022-08-07T11:53:05.199Z,100866.31
2022-08-07T11:56:25.775Z,100872.22
2022-08-07T11:58:33.842Z,100859.75
2022-08-07T12:01:04.336Z,100857.56
2022-08-07T12:03:51.426Z,100864.66
2022-08-07T12:06:39.490Z,100860.94
2022-08-07T12:09:25.834Z,100854.22
2022-08-07T12:12:10.248Z,100852.44
2022-08-07T12:15:00.127Z,100850.34
2022-08-07T12:17:38.823Z,100841.44
2022-08-07T12:20:12.882Z,100850.34
2022-08-07T12:22:59.913Z,100841.44
2022-08-07T12:26:21.360Z,100838.91
2022-08-07T12:28:44.860Z,100837.38
2022-08-07T12:31:17.336Z,100834.19
2022-08-07T12:34:01.290Z,100837.06
2022-08-07T12:36:33.904Z,100836.38
2022-08-07T12:39:09.504Z,100832.69
2022-08-07T12:41:53.976Z,100824.59
2022-08-07T12:44:21.880Z,100820.25
2022-08-07T12:46:52.245Z,100820.25
2022-08-07T12:49:40.199Z,100816.19
2022-08-07T12:52:23.369Z,100818.03
2022-08-07T12:55:05.589Z,100812.97
2022-08-07T12:57:59.466Z,100811.13
2022-08-07T13:00:49.638Z,100810.78
2022-08-07T13:03:56.199Z,100809.44
2022-08-07T13:06:36.494Z,100801.22
2022-08-07T13:10:19.805Z,100804.81
2022-08-07T13:12:29.124Z,100814.63
2022-08-07T13:14:59.019Z,100805.75
2022-08-07T13:17:39.954Z,100806.94
2022-08-07T13:20:32.024Z,100796.28
2022-08-07T13:24:00.164Z,100796.63
2022-08-07T13:26:01.811Z,100794.25
2022-08-07T13:29:09.170Z,100787.50
2022-08-07T13:31:46.272Z,100773.69
2022-08-07T13:34:35.794Z,100777.44
2022-08-07T13:37:28.972Z,100773.06
2022-08-07T13:40:36.607Z,100771.72
2022-08-07T13:43:11.930Z,100777.94
2022-08-07T13:46:12.108Z,100778.00
2022-08-07T13:48:33.924Z,100778.66
2022-08-07T13:51:02.448Z,100764.56
2022-08-07T13:54:00.546Z,100766.41
2022-08-07T13:56:35.683Z,100769.22
2022-08-07T13:59:12.032Z,100766.41
2022-08-07T14:01:51.495Z,100763.56
2022-08-07T14:04:35.778Z,100763.03
2022-08-07T14:07:09.312Z,100748.75
2022-08-07T14:10:01.534Z,100749.59
2022-08-07T14:12:27.581Z,100750.09
2022-08-07T14:14:57.544Z,100745.06
2022-08-07T14:18:12.170Z,100750.63
2022-08-07T14:20:39.905Z,100745.91
2022-08-07T14:23:31.178Z,100738.66
2022-08-07T14:26:10.745Z,100730.78
2022-08-07T14:29:01.911Z,100728.69
2022-08-07T14:31:43.228Z,100728.59
2022-08-07T14:34:29.286Z,100726.91
2022-08-07T14:36:58.439Z,100716.97
2022-08-07T14:40:16.212Z,100718.63
2022-08-07T14:42:22.591Z,100720.00
2022-08-07T14:45:20.965Z,100709.19
2022-08-07T14:47:47.170Z,100700.41
2022-08-07T14:50:19.180Z,100699.03
2022-08-07T14:52:47.972Z,100690.13
2022-08-07T14:55:17.600Z,100683.88
2022-08-07T14:57:58.273Z,100674.06
2022-08-07T15:00:31.158Z,100678.72
2022-08-07T15:03:00.262Z,100677.34
2022-08-07T15:05:54.876Z,100685.69
2022-08-07T15:08:49.726Z,100680.38
2022-08-07T15:11:52.813Z,100688.41
2022-08-07T15:14:11.862Z,100687.63
2022-08-07T15:16:54.611Z,100689.38
2022-08-07T15:19:44.087Z,100697.97
2022-08-07T15:25:13.346Z,100702.34
2022-08-07T15:30:33.866Z,100728.41
2022-08-07T15:33:05.556Z,100740.69
2022-08-07T15:36:02.590Z,100748.25
2022-08-07T15:38:59.375Z,100759.84
2022-08-07T15:42:44.931Z,100754.47
2022-08-07T15:44:10.925Z,100763.31
2022-08-07T15:46:52.021Z,100761.13
2022-08-07T15:49:25.402Z,100763.50
2022-08-07T15:54:25.866Z,100754.00
2022-08-07T15:56:56.730Z,100749.25
2022-08-07T15:59:38.923Z,100749.50
2022-08-07T16:02:07.582Z,100756.69
2022-08-07T16:04:38.098Z,100775.78
2022-08-07T16:08:32.327Z,100777.53
2022-08-07T16:09:57.367Z,100781.28
2022-08-07T16:12:28.526Z,100791.72
2022-08-07T16:14:59.115Z,100805.56
2022-08-07T16:18:02.337Z,100809.75
2022-08-07T16:21:44.032Z,100819.16
2022-08-07T16:23:58.539Z,100813.97
2022-08-07T16:26:30.740Z,100819.47
2022-08-07T16:30:07.140Z,100839.09
2022-08-07T16:32:33.063Z,100833.06
2022-08-07T16:35:58.906Z,100835.63
2022-08-07T16:39:00.024Z,100820.63
2022-08-07T16:41:41.045Z,100817.38
2022-08-07T16:44:46.379Z,100809.59
2022-08-07T16:47:38.613Z,100812.41
2022-08-07T16:50:52.668Z,100828.53
2022-08-07T16:54:06.121Z,100827.41
2022-08-07T16:56:38.854Z,100809.97
2022-08-07T16:59:19.791Z,100803.28
2022-08-07T17:01:57.421Z,100805.31
2022-08-07T17:04:29.872Z,100800.31
2022-08-07T17:07:04.161Z,100781.50
2022-08-07T17:10:06.161Z,100785.19
2022-08-07T17:12:34.088Z,100784.03
2022-08-07T17:15:16.010Z,100796.34
2022-08-07T17:17:44.308Z,100794.34
2022-08-07T17:20:32.667Z,100794.00
2022-08-07T17:23:15.061Z,100788.66
2022-08-07T17:25:52.238Z,100786.28
2022-08-07T17:28:32.647Z,100781.19
2022-08-07T17:31:16.072Z,100775.81
2022-08-07T17:34:17.914Z,100780.88
2022-08-07T17:36:59.962Z,100771.34
2022-08-07T17:39:58.688Z,100786.47
2022-08-07T17:42:35.902Z,100780.56
2022-08-07T17:45:30.502Z,100788.00
2022-08-07T17:48:13.007Z,100784.13
2022-08-07T17:50:47.104Z,100779.19
2022-08-07T17:53:59.581Z,100764.69
2022-08-07T17:56:29.311Z,100753.41
2022-08-07T17:58:57.108Z,100761.59
2022-08-07T18:01:36.217Z,100750.25
2022-08-07T18:04:24.699Z,100751.41
2022-08-07T18:07:20.747Z,100762.63
2022-08-07T18:10:07.426Z,100761.09
2022-08-07T18:12:55.885Z,100757.72
2022-08-07T18:15:32.667Z,100740.41
2022-08-07T18:18:47.070Z,100720.44
2022-08-07T18:23:46.828Z,100691.09
2022-08-07T18:26:20.193Z,100674.16
2022-08-07T18:29:04.365Z,100676.50
2022-08-07T18:31:51.343Z,100676.47
2022-08-07T18:34:37.889Z,100682.66
2022-08-07T18:38:58.810Z,100674.47
2022-08-07T18:40:59.267Z,100654.00
2022-08-07T18:43:36.753Z,100642.94
2022-08-07T18:46:28.651Z,100679.53
2022-08-07T18:50:31.383Z,100704.44
2022-08-07T18:52:38.774Z,100674.38
2022-08-07T18:55:41.076Z,100654.41
2022-08-07T18:58:13.007Z,100625.28
2022-08-07T19:00:54.972Z,100640.38
2022-08-07T19:03:37.930Z,100659.00
2022-08-07T19:06:09.412Z,100648.59
2022-08-07T19:08:54.198Z,100649.56
2022-08-07T19:11:36.303Z,100645.38
2022-08-07T19:14:11.449Z,100638.31
2022-08-07T19:17:01.203Z,100653.00
2022-08-07T19:19:40.600Z,100648.81
2022-08-07T19:22:11.063Z,100628.88
2022-08-07T19:24:44.523Z,100630.44
2022-08-07T19:28:58.533Z,100633.72
2022-08-07T19:31:00.910Z,100631.34
2022-08-07T19:32:59.236Z,100653.41
2022-08-07T19:35:28.442Z,100632.31
2022-08-07T19:38:02.352Z,100641.75
2022-08-07T19:40:33.280Z,100650.63
2022-08-07T19:43:08.562Z,100651.47
2022-08-07T19:46:04.698Z,100666.31
2022-08-07T19:48:54.170Z,100670.31
2022-08-07T19:51:50.781Z,100682.00
2022-08-07T19:54:30.888Z,100678.44
2022-08-07T19:58:00.225Z,100668.59
2022-08-07T19:59:47.057Z,100675.81
2022-08-07T20:02:19.546Z,100665.94
2022-08-07T20:04:50.045Z,100656.72
2022-08-07T20:07:23.745Z,100641.34
2022-08-07T20:10:37.235Z,100638.75
2022-08-07T20:12:53.650Z,100645.16
2022-08-07T20:15:24.612Z,100645.78
2022-08-07T20:18:03.456Z,100658.75
2022-08-07T20:20:32.109Z,100667.94
2022-08-07T20:23:23.356Z,100672.28
2022-08-07T20:25:55.503Z,100672.69
2022-08-07T20:28:29.602Z,100672.88
2022-08-07T20:30:56.769Z,100676.22
2022-08-07T20:33:36.545Z,100680.78
2022-08-07T20:36:06.657Z,100675.00
2022-08-07T20:38:34.964Z,100666.38
2022-08-07T20:41:03.951Z,100659.88
2022-08-07T20:43:33.169Z,100671.28
2022-08-07T20:46:25.834Z,100681.63
2022-08-07T20:49:55.172Z,100687.19
2022-08-07T20:51:40.481Z,100687.63
2022-08-07T20:54:31.873Z,100694.13
2022-08-07T20:57:03.833Z,100702.25
2022-08-07T21:00:06.736Z,100704.97
2022-08-07T21:02:54.049Z,100692.81
2022-08-07T21:05:42.688Z,100700.81
2022-08-07T21:08:15.787Z,100712.56
2022-08-07T21:10:43.541Z,100713.16
2022-08-07T21:13:12.354Z,100717.59
2022-08-07T21:15:58.398Z,100717.25
2022-08-07T21:18:30.356Z,100716.72
2022-08-07T21:21:00.770Z,100716.31
2022-08-07T21:23:34.920Z,100735.28
2022-08-07T21:26:12.616Z,100721.81
2022-08-07T21:28:58.258Z,100742.38
2022-08-07T21:32:10.853Z,100731.53
2022-08-07T21:34:32.620Z,100748.28
2022-08-07T21:37:00.858Z,100739.28
2022-08-07T21:39:46.392Z,100752.25
2022-08-07T21:42:42.790Z,100742.34
2022-08-07T21:46:03.385Z,100737.56
2022-08-07T21:48:03.853Z,100739.41
2022-08-07T21:50:35.563Z,100740.09
2022-08-07T21:53:16.385Z,100741.34
2022-08-07T21:56:02.452Z,100743.78
2022-08-07T21:58:36.044Z,100750.97
2022-08-07T22:01:13.772Z,100749.94
2022-08-07T22:03:46.887Z,100758.41
2022-08-07T22:06:30.480Z,100751.66
2022-08-07T22:09:07.292Z,100760.94
2022-08-07T22:12:05.665Z,100769.97
2022-08-07T22:14:34.825Z,100758.72
2022-08-07T22:17:04.226Z,100770.78
2022-08-07T22:19:30.881Z,100771.63
2022-08-07T22:22:20.742Z,100783.59
2022-08-07T22:25:08.245Z,100775.75
2022-08-07T22:28:19.872Z,100788.38
2022-08-07T22:30:52.985Z,100793.88
2022-08-07T22:33:53.698Z,100789.09
2022-08-07T22:36:24.651Z,100802.88
2022-08-07T22:38:55.958Z,100810.78
2022-08-07T22:42:03.016Z,100802.59
2022-08-07T22:44:20.267Z,100791.75
2022-08-07T22:47:08.663Z,100802.59
2022-08-07T22:49:55.010Z,100794.34
2022-08-07T22:52:37.477Z,100803.38
2022-08-07T22:55:17.522Z,100801.53
2022-08-07T22:58:02.430Z,100798.72
2022-08-07T23:00:34.721Z,100793.19
2022-08-07T23:03:02.342Z,100794.34
2022-08-07T23:06:07.470Z,100789.28
2022-08-07T23:08:38.113Z,100793.19
2022-08-07T23:11:35.144Z,100796.00
2022-08-07T23:14:17.982Z,100794.84
2022-08-07T23:17:20.333Z,100790.69
2022-08-07T23:20:05.751Z,100785.50
2022-08-07T23:22:32.948Z,100783.09
2022-08-07T23:25:20.951Z,100788.13
2022-08-07T23:28:21.224Z,100785.31
2022-08-07T23:31:06.294Z,100791.41
2022-08-07T23:34:35.391Z,100794.31
2022-08-07T23:37:17.711Z,100788.16
2022-08-07T23:39:58.381Z,100787.94
2022-08-07T23:42:44.895Z,100795.75
2022-08-07T23:46:03.628Z,100799.97
2022-08-07T23:48:49.724Z,100796.09
2022-08-07T23:53:05.505Z,100793.19
2022-08-07T23:54:19.618Z,100794.31
2022-08-07T23:57:14.196Z,100789.31
